Time;durP1;ratioP1;P1;durP2;ratioP2;P2;SDS_P1;SDS_P2;PMS_P1;PMS_P2;Temp;Humidity;BMP_temperature;BMP_pressure;BME280_temperature;BME280_humidity;BME280_pressure;Samples;Min_cycle;Max_cycle;Signal;HPM_P1;HPM_P2
2022/05/11 00:00:37;;;;;;;3.33;1.60;;;9.80;48.20;;;;;;5054118;28;20017;-82
2022/05/11 00:03:04;;;;;;;2.90;1.75;;;9.80;48.00;;;;;;5042590;28;20040;-81
2022/05/11 00:05:32;;;;;;;5.45;2.35;;;9.90;48.30;;;;;;5034240;28;20022;-82
2022/05/11 00:07:57;;;;;;;1.98;1.35;;;9.80;48.30;;;;;;5033550;28;20028;-79
2022/05/11 00:10:24;;;;;;;7.03;2.00;;;9.80;48.30;;;;;;5033635;28;20022;-83
2022/05/11 00:12:50;;;;;;;3.85;1.50;;;9.80;48.30;;;;;;5033664;28;20021;-81
2022/05/11 00:15:19;;;;;;;5.93;1.75;;;9.80;48.70;;;;;;5017867;28;20037;-80
2022/05/11 00:17:45;;;;;;;4.18;1.95;;;9.70;48.60;;;;;;5044201;28;20022;-84
2022/05/11 00:20:11;;;;;;;2.97;1.80;;;9.70;48.70;;;;;;5058535;28;20040;-80
2022/05/11 00:22:37;;;;;;;3.67;2.15;;;9.70;48.80;;;;;;5043121;28;20021;-79
2022/05/11 00:25:07;;;;;;;4.05;1.90;;;9.70;48.80;;;;;;5056496;28;20028;-80
2022/05/11 00:27:32;;;;;;;3.90;2.15;;;9.70;48.80;;;;;;5054521;28;20017;-81
2022/05/11 00:29:58;;;;;;;5.80;1.80;;;9.60;48.80;;;;;;5002458;28;20458;-82
2022/05/11 00:32:25;;;;;;;3.38;1.67;;;9.60;49.00;;;;;;5053589;28;20095;-82
2022/05/11 00:34:54;;;;;;;6.00;2.22;;;9.60;49.00;;;;;;5053351;28;20037;-82
2022/05/11 00:37:20;;;;;;;3.15;2.20;;;9.60;49.00;;;;;;5053070;28;20013;-82
2022/05/11 00:39:46;;;;;;;4.38;2.33;;;9.50;49.00;;;;;;5016221;28;20073;-81
2022/05/11 00:42:12;;;;;;;5.43;1.90;;;9.50;49.00;;;;;;5013501;28;20025;-82
2022/05/11 00:44:38;;;;;;;4.45;1.60;;;9.50;49.10;;;;;;4996266;28;20092;-83
2022/05/11 00:47:14;;;;;;;4.15;1.85;;;9.50;49.00;;;;;;5013721;28;20093;-81
2022/05/11 00:49:51;;;;;;;6.38;2.30;;;9.50;49.00;;;;;;5013757;28;20018;-80
2022/05/11 00:52:34;;;;;;;4.22;2.15;;;9.40;49.00;;;;;;5014273;28;20033;-80
2022/05/11 00:55:06;;;;;;;2.10;1.55;;;9.40;49.10;;;;;;5019480;28;20034;-79
2022/05/11 00:57:42;;;;;;;3.42;1.58;;;9.30;49.20;;;;;;5021845;28;20037;-81
2022/05/11 01:00:13;;;;;;;7.65;2.38;;;9.30;49.20;;;;;;5017897;28;20029;-80
2022/05/11 01:02:44;;;;;;;4.75;1.77;;;9.30;49.20;;;;;;5035163;28;20391;-79
2022/05/11 01:05:10;;;;;;;3.95;1.90;;;9.30;49.40;;;;;;5034377;28;20116;-81
2022/05/11 01:07:36;;;;;;;2.13;1.63;;;9.30;49.40;;;;;;5033411;28;20064;-81
2022/05/11 01:10:07;;;;;;;6.13;1.70;;;9.20;49.50;;;;;;5021420;28;20057;-81
2022/05/11 01:12:40;;;;;;;3.40;1.25;;;9.20;49.60;;;;;;5024142;28;20455;-81
2022/05/11 01:15:08;;;;;;;3.10;1.48;;;9.10;49.50;;;;;;5032877;28;20044;-80
2022/05/11 01:17:37;;;;;;;2.92;1.65;;;9.20;49.60;;;;;;5015250;28;20029;-80
2022/05/11 01:20:06;;;;;;;3.85;2.15;;;9.20;49.60;;;;;;5032479;28;20026;-80
2022/05/11 01:22:52;;;;;;;3.17;1.70;;;9.20;49.50;;;;;;5032089;28;20390;-80
2022/05/11 01:25:18;;;;;;;4.22;2.05;;;9.20;49.40;;;;;;5001397;28;20072;-80
2022/05/11 01:27:46;;;;;;;2.92;1.67;;;9.20;49.40;;;;;;5032408;28;20021;-81
2022/05/11 01:30:17;;;;;;;3.15;1.25;;;9.20;49.40;;;;;;5032475;28;20037;-81
2022/05/11 01:32:47;;;;;;;6.00;1.60;;;9.20;49.20;;;;;;5014805;28;20084;-81
2022/05/11 01:35:24;;;;;;;3.38;1.55;;;9.20;49.10;;;;;;5032752;28;20144;-80
2022/05/11 01:37:59;;;;;;;;;;;9.20;49.30;;;;;;5038113;28;20021;-81
2022/05/11 01:40:25;;;;;;;8.27;2.58;;;9.20;49.20;;;;;;5044828;28;19905;-82
2022/05/11 01:42:51;;;;;;;3.08;1.70;;;9.20;49.20;;;;;;5056701;28;20093;-80
2022/05/11 01:45:17;;;;;;;3.03;1.45;;;9.20;48.90;;;;;;5044017;28;20034;-82
2022/05/11 01:47:42;;;;;;;4.45;1.38;;;9.20;48.90;;;;;;5038795;28;20021;-80
2022/05/11 01:50:09;;;;;;;5.25;1.30;;;9.20;48.90;;;;;;5038634;28;20080;-81
2022/05/11 01:52:34;;;;;;;4.97;1.60;;;9.20;49.10;;;;;;5037269;28;20076;-81
2022/05/11 01:55:01;;;;;;;4.13;1.60;;;9.20;49.00;;;;;;5036198;28;20067;-81
2022/05/11 01:57:26;;;;;;;5.40;1.60;;;9.20;49.10;;;;;;5036369;28;20041;-80
2022/05/11 01:59:53;;;;;;;4.63;1.33;;;9.20;49.10;;;;;;5036659;28;20072;-81
2022/05/11 02:02:18;;;;;;;2.65;1.52;;;9.20;49.00;;;;;;5020348;28;20052;-80
2022/05/11 02:07:51;;;;;;;1.38;0.90;;;9.30;48.90;;;;;;4936326;29;20153;-81
2022/05/11 02:10:23;;;;;;;5.25;1.30;;;9.30;48.90;;;;;;5018927;28;20061;-81
2022/05/11 02:12:49;;;;;;;2.55;1.33;;;9.30;48.80;;;;;;5035702;28;20037;-82
2022/05/11 02:15:16;;;;;;;4.82;2.08;;;9.30;48.60;;;;;;5035352;28;20095;-80
2022/05/11 02:17:43;;;;;;;3.47;1.30;;;9.30;48.70;;;;;;5035572;28;20018;-82
2022/05/11 02:20:11;;;;;;;1.83;1.45;;;9.40;48.50;;;;;;5035840;28;20028;-82
2022/05/11 02:22:37;;;;;;;4.80;1.38;;;9.40;48.50;;;;;;5022386;28;20434;-82
2022/05/11 02:25:04;;;;;;;2.60;1.33;;;9.40;48.60;;;;;;5039992;28;20029;-81
2022/05/11 02:27:32;;;;;;;1.05;0.85;;;9.40;48.40;;;;;;5036441;28;20526;-81
2022/05/11 02:29:58;;;;;;;5.93;1.58;;;9.50;48.30;;;;;;5035648;28;20069;-82
2022/05/11 02:32:25;;;;;;;7.28;1.80;;;9.50;48.30;;;;;;5035566;28;20025;-80
2022/05/11 02:37:36;;;;;;;3.30;1.20;;;9.60;48.00;;;;;;5035464;28;20095;-82
2022/05/11 02:40:02;;;;;;;3.83;1.27;;;9.60;47.80;;;;;;5035235;28;20448;-80
2022/05/11 02:42:28;;;;;;;3.13;1.10;;;9.70;47.80;;;;;;5035083;28;20067;-80
2022/05/11 02:44:54;;;;;;;2.83;1.25;;;9.70;47.90;;;;;;5034866;28;20505;-80
2022/05/11 02:47:20;;;;;;;3.30;1.02;;;9.80;47.80;;;;;;5034814;28;20021;-80
2022/05/11 02:49:46;;;;;;;1.52;0.95;;;9.80;47.50;;;;;;5035254;28;20028;-79
2022/05/11 02:52:14;;;;;;;1.90;1.13;;;9.80;47.40;;;;;;5034929;28;20509;-80
2022/05/11 02:54:41;;;;;;;6.32;1.60;;;9.80;47.20;;;;;;5034851;28;20038;-82
2022/05/11 02:57:07;;;;;;;3.53;1.50;;;9.90;47.30;;;;;;5034970;28;20030;-79
2022/05/11 02:59:33;;;;;;;3.20;1.38;;;10.00;47.10;;;;;;5034542;28;20751;-79
2022/05/11 03:01:59;;;;;;;4.28;1.42;;;10.00;47.10;;;;;;5034759;28;20028;-79
2022/05/11 03:04:25;;;;;;;2.60;1.33;;;10.00;47.00;;;;;;5017123;28;20478;-80
2022/05/11 03:06:51;;;;;;;11.15;1.70;;;10.10;46.70;;;;;;5034986;28;20833;-81
2022/05/11 03:09:17;;;;;;;1.80;1.20;;;10.10;46.60;;;;;;5034466;28;20036;-80
2022/05/11 03:11:44;;;;;;;3.13;1.23;;;10.10;46.60;;;;;;5034230;28;20029;-79
2022/05/11 03:14:13;;;;;;;1.55;0.95;;;10.10;46.90;;;;;;5034777;28;20467;-81
2022/05/11 03:16:40;;;;;;;4.03;1.80;;;10.10;46.70;;;;;;5034340;28;20105;-80
2022/05/11 03:19:06;;;;;;;4.00;1.48;;;10.20;46.60;;;;;;5034511;28;20049;-80
2022/05/11 03:21:33;;;;;;;4.25;1.40;;;10.20;46.70;;;;;;5034378;28;20033;-80
2022/05/11 03:23:59;;;;;;;4.50;1.58;;;10.30;46.50;;;;;;5034119;28;20026;-80
2022/05/11 03:26:26;;;;;;;4.90;1.73;;;10.30;46.60;;;;;;5034527;28;20026;-81
2022/05/11 03:28:52;;;;;;;2.53;1.55;;;10.40;46.40;;;;;;5034157;28;20358;-80
2022/05/11 03:31:18;;;;;;;2.30;1.27;;;10.40;46.20;;;;;;5034221;28;20034;-82
2022/05/11 03:36:29;;;;;;;2.80;1.30;;;10.40;46.20;;;;;;5034198;28;20575;-81
2022/05/11 03:38:55;;;;;;;4.65;2.38;;;10.50;46.10;;;;;;5034130;28;20359;-80
2022/05/11 03:41:21;;;;;;;6.28;1.83;;;10.50;46.20;;;;;;5034146;28;20041;-80
2022/05/11 03:43:47;;;;;;;2.85;1.00;;;10.50;46.10;;;;;;5034594;28;20032;-79
2022/05/11 03:46:12;;;;;;;4.88;1.42;;;10.40;45.60;;;;;;5034839;28;20052;-81
2022/05/11 03:48:38;;;;;;;7.05;1.45;;;10.40;45.90;;;;;;5035278;28;20021;-80
2022/05/11 03:51:05;;;;;;;8.25;1.77;;;10.50;46.10;;;;;;5038089;28;20057;-82
2022/05/11 03:53:33;;;;;;;4.80;1.80;;;10.50;46.00;;;;;;5043095;28;20020;-80
2022/05/11 03:55:59;;;;;;;3.72;1.33;;;10.50;45.90;;;;;;5045142;28;20057;-79
2022/05/11 03:58:25;;;;;;;4.22;1.40;;;10.50;46.00;;;;;;5004925;28;20018;-79
2022/05/11 04:00:51;;;;;;;2.47;1.67;;;10.50;45.80;;;;;;5002821;28;20025;-80
2022/05/11 04:03:17;;;;;;;3.90;1.75;;;10.50;45.90;;;;;;5025366;28;20033;-79
2022/05/11 04:05:43;;;;;;;4.38;1.88;;;10.60;45.70;;;;;;5020994;28;20109;-80
2022/05/11 04:08:09;;;;;;;2.42;1.55;;;10.60;45.90;;;;;;5016227;28;20168;-80
2022/05/11 04:10:41;;;;;;;2.58;1.13;;;10.60;45.80;;;;;;5025320;28;20021;-81
2022/05/11 04:13:08;;;;;;;4.40;1.65;;;10.60;45.70;;;;;;5034698;28;20017;-80
2022/05/11 04:15:33;;;;;;;5.22;1.52;;;10.60;45.50;;;;;;5034003;28;20045;-80
2022/05/11 04:17:59;;;;;;;3.63;1.42;;;10.60;45.70;;;;;;5033789;28;20030;-82
2022/05/11 04:20:25;;;;;;;3.72;1.60;;;10.60;45.40;;;;;;5033260;28;20018;-81
2022/05/11 04:22:51;;;;;;;2.85;1.83;;;10.70;45.60;;;;;;5033457;28;20029;-80
2022/05/11 04:25:18;;;;;;;4.25;1.60;;;10.70;45.60;;;;;;5015650;28;20034;-81
2022/05/11 04:27:45;;;;;;;5.30;1.70;;;10.80;45.30;;;;;;5033079;28;20018;-80
2022/05/11 04:30:13;;;;;;;4.68;1.75;;;10.80;45.00;;;;;;5034014;28;20124;-82
2022/05/11 04:32:38;;;;;;;5.65;1.90;;;10.90;45.10;;;;;;5034863;28;20437;-82
2022/05/11 04:35:05;;;;;;;2.33;1.90;;;10.90;45.80;;;;;;5036990;28;20084;-83
2022/05/11 04:37:31;;;;;;;4.95;1.55;;;11.00;45.40;;;;;;5046848;28;20032;-81
2022/05/11 04:39:56;;;;;;;7.65;2.35;;;11.00;45.30;;;;;;5044194;28;20037;-82
2022/05/11 04:42:22;;;;;;;7.88;1.88;;;11.10;45.20;;;;;;5033358;28;20379;-81
2022/05/11 04:44:49;;;;;;;4.70;1.92;;;11.10;45.30;;;;;;5033022;28;20021;-87
2022/05/11 04:47:17;;;;;;;4.60;1.83;;;11.10;44.90;;;;;;5032527;28;20029;-80
2022/05/11 04:49:43;;;;;;;6.55;1.90;;;11.00;45.20;;;;;;5029509;28;20021;-80
2022/05/11 04:52:16;;;;;;;9.68;2.05;;;11.10;45.30;;;;;;5016035;28;20014;-83
2022/05/11 04:54:45;;;;;;;3.45;1.55;;;11.10;45.30;;;;;;5018051;28;20793;-82
2022/05/11 04:57:11;;;;;;;4.45;1.77;;;11.30;44.80;;;;;;5033371;28;20089;-81
2022/05/11 04:59:41;;;;;;;2.50;1.58;;;11.40;44.80;;;;;;5032755;28;20403;-78
2022/05/11 05:02:12;;;;;;;3.10;1.52;;;11.50;44.40;;;;;;5014309;28;20490;-79
2022/05/11 05:04:38;;;;;;;2.42;1.35;;;11.50;44.00;;;;;;5024508;28;20118;-80
2022/05/11 05:07:04;;;;;;;5.05;1.98;;;11.50;44.10;;;;;;5012810;28;20492;-80
2022/05/11 05:09:29;;;;;;;7.13;1.33;;;11.50;44.20;;;;;;5013425;28;20026;-81
2022/05/11 05:11:55;;;;;;;4.13;1.60;;;11.70;43.30;;;;;;5001242;28;20487;-81
2022/05/11 05:14:21;;;;;;;4.57;1.98;;;11.80;43.30;;;;;;5025178;28;20034;-84
2022/05/11 05:16:48;;;;;;;4.00;1.45;;;12.00;43.20;;;;;;5012384;28;20026;-84
2022/05/11 05:19:14;;;;;;;2.17;1.40;;;12.20;43.10;;;;;;5023052;28;20033;-83
2022/05/11 05:21:40;;;;;;;5.28;1.90;;;12.40;41.90;;;;;;4979622;28;20267;-84
2022/05/11 05:24:07;;;;;;;3.33;1.40;;;12.50;42.00;;;;;;5025696;28;20450;-79
2022/05/11 05:26:33;;;;;;;9.90;2.00;;;12.70;41.60;;;;;;5031965;28;20503;-83
2022/05/11 05:31:44;;;;;;;9.55;2.20;;;13.20;40.70;;;;;;5013399;28;20025;-81
2022/05/11 05:34:09;;;;;;;6.82;1.88;;;13.50;40.80;;;;;;5012770;28;20022;-81
2022/05/11 05:36:39;;;;;;;8.25;1.83;;;13.70;40.00;;;;;;5013259;28;20042;-87
2022/05/11 05:39:07;;;;;;;5.53;1.63;;;14.00;39.70;;;;;;5013125;28;20085;-81
2022/05/11 05:41:32;;;;;;;3.45;1.50;;;14.10;39.40;;;;;;5012531;28;20060;-83
2022/05/11 05:43:58;;;;;;;5.50;1.50;;;14.30;38.60;;;;;;4996721;28;20026;-88
2022/05/11 05:46:25;;;;;;;4.80;1.83;;;14.40;38.60;;;;;;4995750;28;20479;-87
2022/05/11 05:48:51;;;;;;;3.65;1.50;;;14.60;38.10;;;;;;5012981;28;20243;-87
2022/05/11 05:51:19;;;;;;;5.00;1.55;;;14.90;37.60;;;;;;4995421;28;20030;-86
2022/05/11 05:53:45;;;;;;;4.25;2.60;;;15.10;37.40;;;;;;5014443;28;20018;-88
2022/05/11 05:56:13;;;;;;;3.88;1.58;;;15.20;37.20;;;;;;5013774;28;20045;-87
2022/05/11 05:58:39;;;;;;;5.05;1.50;;;15.10;36.90;;;;;;5014138;28;20037;-88
2022/05/11 06:01:06;;;;;;;4.80;2.00;;;15.10;36.60;;;;;;4996885;28;20030;-87
2022/05/11 06:03:34;;;;;;;3.50;1.80;;;15.20;36.80;;;;;;4998789;28;20030;-87
2022/05/11 06:06:00;;;;;;;13.85;2.03;;;15.30;36.70;;;;;;5022386;28;20040;-86
2022/05/11 06:08:29;;;;;;;6.90;1.73;;;15.40;36.40;;;;;;5031694;28;20026;-86
2022/05/11 06:10:57;;;;;;;4.15;1.65;;;15.20;36.10;;;;;;5011946;28;20030;-87
2022/05/11 06:13:23;;;;;;;3.03;0.95;;;15.10;36.30;;;;;;5035538;28;20056;-86
2022/05/11 06:15:54;;;;;;;11.75;1.70;;;15.00;36.20;;;;;;5035095;28;20091;-87
2022/05/11 06:18:20;;;;;;;5.63;2.38;;;15.00;36.80;;;;;;5034153;28;20033;-87
2022/05/11 06:20:51;;;;;;;3.77;1.73;;;15.20;36.60;;;;;;5033162;28;20040;-85
2022/05/11 06:23:18;;;;;;;10.15;2.97;;;15.40;35.80;;;;;;5036494;28;20342;-87
2022/05/11 06:25:49;;;;;;;4.28;1.65;;;15.60;36.30;;;;;;5037475;28;20128;-90
2022/05/11 06:28:15;;;;;;;3.25;1.38;;;15.90;35.70;;;;;;5019933;28;20040;-91
2022/05/11 06:30:40;;;;;;;8.57;1.85;;;15.90;35.00;;;;;;5024799;28;20208;-87
2022/05/11 06:33:06;;;;;;;4.43;1.50;;;16.00;35.70;;;;;;5044028;28;20387;-86
2022/05/11 06:35:32;;;;;;;5.53;1.98;;;16.10;35.60;;;;;;5021585;28;20049;-86
2022/05/11 06:38:07;;;;;;;3.22;1.73;;;16.30;35.10;;;;;;5052258;28;20041;-86
2022/05/11 06:40:33;;;;;;;4.03;1.40;;;16.50;34.90;;;;;;5045323;28;20064;-86
2022/05/11 06:43:01;;;;;;;4.18;1.75;;;16.40;34.30;;;;;;5021232;28;20044;-87
2022/05/11 06:45:28;;;;;;;3.25;1.50;;;16.40;35.00;;;;;;5020288;28;20057;-86
2022/05/11 06:47:54;;;;;;;5.35;1.90;;;16.60;34.30;;;;;;5036312;28;20029;-86
2022/05/11 06:50:21;;;;;;;3.33;2.42;;;16.30;34.30;;;;;;5035762;28;20022;-88
2022/05/11 06:52:47;;;;;;;4.57;2.00;;;16.00;34.80;;;;;;5034921;28;20032;-87
2022/05/11 07:00:42;;;;;;;7.03;1.45;;;15.90;35.00;;;;;;5016438;28;20553;-86
2022/05/11 07:03:09;;;;;;;2.38;1.73;;;15.70;35.00;;;;;;4998944;28;20022;-85
2022/05/11 07:05:35;;;;;;;4.57;2.08;;;15.60;35.30;;;;;;5018357;28;20384;-85
2022/05/11 07:08:02;;;;;;;3.47;1.98;;;15.60;35.20;;;;;;5002974;28;20034;-86
2022/05/11 07:10:28;;;;;;;2.67;1.70;;;15.30;34.90;;;;;;5021085;28;20087;-86
2022/05/11 07:12:56;;;;;;;4.35;2.30;;;15.20;34.90;;;;;;5035029;28;20437;-87
2022/05/11 07:15:23;;;;;;;4.60;2.15;;;15.40;35.00;;;;;;5037498;28;20041;-87
2022/05/11 07:17:56;;;;;;;7.47;2.80;;;15.80;34.80;;;;;;5036971;28;20104;-86
2022/05/11 07:20:36;;;;;;;5.10;1.55;;;16.60;34.10;;;;;;5035583;28;20114;-89
2022/05/11 07:23:03;;;;;;;4.38;1.90;;;17.20;33.00;;;;;;5035192;28;20397;-89
2022/05/11 07:25:29;;;;;;;3.58;1.95;;;18.00;32.50;;;;;;5035565;28;20068;-87
2022/05/11 07:27:59;;;;;;;3.53;2.10;;;18.70;31.10;;;;;;5035601;28;20030;-87
2022/05/11 07:30:30;;;;;;;4.50;1.95;;;18.80;31.20;;;;;;5035581;28;20030;-87
2022/05/11 07:32:59;;;;;;;7.03;2.55;;;19.30;30.30;;;;;;5018682;28;20029;-86
2022/05/11 07:35:25;;;;;;;7.15;2.97;;;20.10;30.00;;;;;;5035464;28;20387;-87
2022/05/11 07:37:51;;;;;;;8.55;2.58;;;20.80;29.20;;;;;;5039844;28;20045;-87
2022/05/11 07:40:19;;;;;;;5.45;2.30;;;21.00;28.50;;;;;;5038957;28;20030;-87
2022/05/11 07:42:45;;;;;;;15.50;1.95;;;21.10;28.30;;;;;;5043812;28;20017;-85
2022/05/11 07:45:12;;;;;;;10.32;2.90;;;21.10;28.10;;;;;;5050301;28;20025;-88
2022/05/11 07:47:39;;;;;;;;;;;21.00;28.60;;;;;;5048853;28;20022;-85
2022/05/11 07:50:06;;;;;;;3.97;2.05;;;21.40;28.40;;;;;;5035483;28;19936;-87
2022/05/11 07:52:32;;;;;;;6.88;2.00;;;21.60;27.90;;;;;;5035186;28;20026;-87
2022/05/11 07:54:58;;;;;;;6.95;2.17;;;21.90;27.50;;;;;;5035443;28;20376;-88
2022/05/11 08:00:10;;;;;;;6.10;2.15;;;23.00;27.30;;;;;;5034933;28;20537;-86
2022/05/11 08:02:39;;;;;;;10.85;2.25;;;23.90;26.30;;;;;;5034393;28;20026;-88
2022/05/11 08:05:08;;;;;;;2.53;1.65;;;23.60;26.30;;;;;;5034678;28;20037;-89
2022/05/11 08:07:44;;;;;;;4.68;2.38;;;23.60;26.30;;;;;;5017009;28;20032;-87
2022/05/11 08:10:16;;;;;;;6.75;3.78;;;24.20;26.20;;;;;;5034514;28;20022;-87
2022/05/11 08:12:42;;;;;;;4.38;1.85;;;25.10;25.70;;;;;;5017448;28;20053;-87
2022/05/11 08:15:09;;;;;;;4.88;1.95;;;25.90;25.40;;;;;;5036244;28;20487;-86
2022/05/11 08:17:36;;;;;;;4.72;2.30;;;26.20;25.20;;;;;;5041325;28;20021;-86
2022/05/11 08:20:07;;;;;;;5.50;1.90;;;27.00;25.20;;;;;;5053888;28;20018;-83
2022/05/11 08:22:35;;;;;;;2.60;1.60;;;27.30;24.90;;;;;;5053904;28;20024;-89
2022/05/11 08:25:01;;;;;;;5.90;1.42;;;26.90;24.60;;;;;;5046066;28;20041;-86
2022/05/11 08:27:30;;;;;;;6.38;1.80;;;25.90;24.70;;;;;;5020000;28;20041;-87
2022/05/11 08:35:27;;;;;;;5.72;1.88;;;22.00;27.30;;;;;;5033814;28;20490;-87
2022/05/11 08:37:53;;;;;;;7.00;2.35;;;21.30;28.00;;;;;;5016685;28;20032;-87
2022/05/11 08:40:39;;;;;;;4.25;1.50;;;20.90;28.40;;;;;;5034543;28;20045;-87
2022/05/11 08:43:10;;;;;;;6.60;2.17;;;20.50;28.70;;;;;;5033579;28;20501;-87
2022/05/11 08:45:58;;;;;;;6.28;1.83;;;20.50;29.10;;;;;;5015671;28;20079;-88
2022/05/11 08:48:58;;;;;;;5.88;2.65;;;20.60;29.00;;;;;;5033469;28;20052;-86
2022/05/11 08:51:46;;;;;;;3.22;2.08;;;20.50;29.20;;;;;;5007962;28;20483;-87
2022/05/11 08:54:34;;;;;;;2.20;1.52;;;20.20;29.30;;;;;;5034215;28;20041;-87
2022/05/11 08:57:09;;;;;;;6.40;2.20;;;20.00;29.50;;;;;;5016074;28;20025;-87
2022/05/11 08:59:37;;;;;;;5.20;2.35;;;20.00;29.50;;;;;;5016173;28;20357;-86
2022/05/11 09:02:24;;;;;;;3.97;1.80;;;20.00;29.60;;;;;;5034324;28;20033;-87
2022/05/11 09:04:58;;;;;;;5.90;1.70;;;19.90;29.40;;;;;;5034573;28;20044;-87
2022/05/11 09:07:27;;;;;;;3.45;1.70;;;19.70;29.70;;;;;;5033700;28;20025;-87
2022/05/11 09:09:54;;;;;;;4.60;2.03;;;19.40;29.90;;;;;;5033714;28;20022;-87
2022/05/11 09:12:20;;;;;;;4.95;2.28;;;19.30;30.00;;;;;;5016464;28;20026;-86
2022/05/11 09:14:51;;;;;;;3.33;2.07;;;19.30;30.10;;;;;;5036479;28;20041;-86
2022/05/11 09:17:24;;;;;;;8.70;2.22;;;19.20;30.00;;;;;;5034813;28;20080;-88
2022/05/11 09:20:07;;;;;;;3.17;1.95;;;18.90;30.50;;;;;;5033838;28;20097;-87
2022/05/11 09:22:58;;;;;;;7.57;1.88;;;19.00;30.50;;;;;;5017107;28;20116;-88
2022/05/11 09:25:28;;;;;;;5.68;2.42;;;19.00;30.40;;;;;;5019955;28;20060;-85
2022/05/11 09:28:15;;;;;;;4.20;2.00;;;18.80;30.60;;;;;;5047868;28;20051;-86
2022/05/11 09:31:01;;;;;;;8.88;2.70;;;18.80;30.90;;;;;;5017369;28;20116;-87
2022/05/11 09:33:30;;;;;;;11.25;2.38;;;18.80;30.70;;;;;;5034158;28;20017;-87
2022/05/11 09:35:57;;;;;;;10.75;3.28;;;18.70;30.90;;;;;;5035915;28;20533;-88
2022/05/11 09:38:30;;;;;;;3.83;2.35;;;18.80;30.90;;;;;;5040026;28;20021;-87
2022/05/11 09:41:03;;;;;;;6.88;2.42;;;18.90;30.50;;;;;;5018277;28;20029;-88
2022/05/11 09:43:38;;;;;;;6.78;3.13;;;18.70;30.80;;;;;;5033570;28;20018;-88
2022/05/11 09:46:34;;;;;;;9.85;2.40;;;18.70;30.70;;;;;;5033646;28;20026;-89
2022/05/11 09:49:32;;;;;;;10.87;3.10;;;19.20;31.40;;;;;;5033824;28;20049;-85
2022/05/11 09:51:58;;;;;;;9.50;3.28;;;19.40;30.70;;;;;;5000503;28;20033;-87
2022/05/11 09:54:48;;;;;;;6.40;2.45;;;19.40;30.50;;;;;;5013609;28;20022;-86
2022/05/11 09:57:29;;;;;;;4.28;1.83;;;19.30;30.80;;;;;;5015251;28;20398;-89
2022/05/11 10:00:22;;;;;;;3.22;1.40;;;19.10;30.40;;;;;;5017743;28;20025;-86
2022/05/11 10:02:55;;;;;;;3.97;1.88;;;18.70;30.40;;;;;;5017797;28;20022;-87
2022/05/11 10:05:32;;;;;;;4.60;1.80;;;18.40;31.00;;;;;;5019807;28;20395;-86
2022/05/11 10:08:13;;;;;;;4.75;1.83;;;18.40;31.20;;;;;;5003685;28;20064;-88
2022/05/11 10:10:56;;;;;;;4.35;2.03;;;18.50;31.10;;;;;;5022111;28;20055;-88
2022/05/11 10:13:34;;;;;;;10.10;2.72;;;18.50;31.30;;;;;;5043132;28;20061;-86
2022/05/11 10:22:00;;;;;;;3.58;2.20;;;18.00;31.70;;;;;;5036176;28;20028;-87
2022/05/11 10:24:51;;;;;;;3.30;2.00;;;17.70;32.10;;;;;;5036433;28;20105;-88
2022/05/11 10:27:35;;;;;;;6.40;2.15;;;17.70;32.20;;;;;;5036809;28;20032;-86
2022/05/11 10:30:08;;;;;;;5.20;1.90;;;17.90;32.30;;;;;;5038353;28;20041;-88
2022/05/11 10:33:01;;;;;;;7.03;2.10;;;18.10;31.90;;;;;;5046143;28;20029;-86
2022/05/11 10:35:32;;;;;;;7.55;3.10;;;18.10;32.00;;;;;;5033936;28;20049;-87
2022/05/11 10:37:58;;;;;;;8.07;2.70;;;18.00;32.70;;;;;;5044721;28;20468;-86
2022/05/11 10:40:59;;;;;;;7.72;2.65;;;18.00;32.50;;;;;;5040233;28;20113;-87
2022/05/11 10:43:56;;;;;;;3.60;2.45;;;18.20;32.10;;;;;;5025146;28;20045;-86
2022/05/11 10:46:34;;;;;;;7.72;2.10;;;18.30;32.40;;;;;;5039223;28;20037;-85
2022/05/11 10:49:24;;;;;;;5.57;2.38;;;18.40;32.30;;;;;;5019731;28;20025;-86
2022/05/11 10:52:05;;;;;;;6.03;2.67;;;18.50;32.40;;;;;;5025875;28;20018;-85
2022/05/11 10:54:37;;;;;;;4.80;1.85;;;18.50;32.60;;;;;;5022945;28;20057;-89
2022/05/11 10:57:25;;;;;;;3.95;1.83;;;18.60;32.60;;;;;;5017300;28;20026;-87
2022/05/11 10:59:55;;;;;;;5.93;2.20;;;18.60;32.90;;;;;;5017355;28;20030;-87
2022/05/11 11:02:41;;;;;;;5.53;1.95;;;18.60;33.30;;;;;;4999838;28;20431;-86
2022/05/11 11:05:22;;;;;;;11.07;2.25;;;18.80;33.30;;;;;;5016722;28;20104;-87
2022/05/11 11:07:49;;;;;;;7.70;2.40;;;18.60;33.50;;;;;;5016571;28;20036;-88
2022/05/11 11:10:49;;;;;;;12.85;2.53;;;18.50;34.00;;;;;;5015977;28;20018;-87
2022/05/11 11:13:21;;;;;;;4.63;2.20;;;18.60;33.70;;;;;;5032741;28;20045;-86
2022/05/11 11:15:47;;;;;;;7.28;2.47;;;18.50;33.60;;;;;;5036554;28;20072;-86
2022/05/11 11:18:18;;;;;;;3.30;2.10;;;18.30;33.70;;;;;;5037535;28;20021;-88
2022/05/11 11:20:46;;;;;;;6.32;2.42;;;18.40;33.70;;;;;;5039769;28;20025;-85
2022/05/11 11:23:15;;;;;;;5.40;2.10;;;18.50;33.80;;;;;;5037363;28;20045;-88
2022/05/11 11:25:55;;;;;;;6.22;2.08;;;18.70;33.90;;;;;;5047335;28;20081;-86
2022/05/11 11:28:23;;;;;;;6.22;2.05;;;18.90;33.30;;;;;;5052439;28;20025;-86
2022/05/11 11:30:58;;;;;;;5.47;1.83;;;18.80;33.10;;;;;;5043722;28;20018;-85
2022/05/11 11:33:26;;;;;;;3.50;2.00;;;18.70;33.40;;;;;;5036207;28;20382;-86
2022/05/11 11:35:58;;;;;;;4.30;1.98;;;18.60;34.00;;;;;;5036195;28;20484;-87
2022/05/11 11:38:41;;;;;;;6.07;1.88;;;18.70;33.90;;;;;;5035611;28;20463;-87
2022/05/11 11:41:28;;;;;;;3.97;2.13;;;18.80;33.70;;;;;;5018138;28;20030;-85
2022/05/11 11:44:22;;;;;;;4.65;2.25;;;18.90;33.60;;;;;;4984519;28;20498;-88
2022/05/11 11:46:50;;;;;;;3.08;2.15;;;18.90;33.20;;;;;;5035180;28;20140;-87
2022/05/11 11:49:19;;;;;;;5.57;2.13;;;18.80;33.20;;;;;;5019067;28;20040;-87
2022/05/11 11:52:02;;;;;;;5.95;2.10;;;18.60;33.40;;;;;;5037183;28;20060;-88
2022/05/11 11:54:34;;;;;;;5.68;1.98;;;18.80;33.20;;;;;;4994995;28;20109;-85
2022/05/11 11:57:02;;;;;;;2.65;2.13;;;18.70;33.00;;;;;;4995654;28;20210;-86
2022/05/11 11:59:30;;;;;;;;;;;18.60;33.20;;;;;;4997186;28;20062;-86
2022/05/11 12:02:04;;;;;;;4.65;2.20;;;18.60;33.30;;;;;;5007582;28;19940;-84
2022/05/11 12:04:41;;;;;;;3.35;2.05;;;18.70;33.20;;;;;;5010065;28;20072;-85
2022/05/11 12:15:34;;;;;;;9.90;2.83;;;18.80;33.00;;;;;;5001617;28;20057;-85
2022/05/11 12:18:02;;;;;;;3.05;2.17;;;18.80;33.50;;;;;;5000257;28;20049;-86
2022/05/11 12:20:42;;;;;;;4.07;1.77;;;18.90;33.20;;;;;;4992566;28;20031;-88
2022/05/11 12:23:20;;;;;;;8.35;2.10;;;18.90;32.80;;;;;;4992807;28;20030;-88
2022/05/11 12:26:20;;;;;;;2.72;2.10;;;18.90;32.60;;;;;;5018842;28;20033;-87
2022/05/11 12:28:45;;;;;;;5.03;2.10;;;18.80;32.80;;;;;;5023606;28;20483;-86
2022/05/11 12:31:32;;;;;;;5.10;2.00;;;18.70;32.90;;;;;;5016661;28;20030;-85
2022/05/11 12:33:58;;;;;;;4.30;1.88;;;18.70;32.50;;;;;;5019502;28;20029;-84
2022/05/11 12:36:34;;;;;;;4.75;2.20;;;18.60;32.60;;;;;;5035110;28;20111;-86
2022/05/11 12:39:01;;;;;;;5.20;2.50;;;18.60;32.70;;;;;;5036466;28;20030;-87
2022/05/11 12:41:29;;;;;;;5.18;2.42;;;18.50;32.90;;;;;;5040432;28;20570;-86
2022/05/11 12:43:57;;;;;;;;;;;18.50;33.00;;;;;;5046728;28;20030;-85
2022/05/11 12:46:23;;;;;;;3.08;2.47;;;18.50;33.20;;;;;;5052165;28;19905;-87
2022/05/11 12:48:56;;;;;;;3.38;2.13;;;18.50;33.10;;;;;;5053262;28;20075;-86
2022/05/11 12:51:29;;;;;;;3.83;1.77;;;18.60;33.00;;;;;;5043139;28;20032;-88
2022/05/11 12:53:58;;;;;;;11.93;3.13;;;18.60;33.10;;;;;;5038163;28;20021;-87
2022/05/11 12:56:38;;;;;;;5.35;2.58;;;18.60;33.60;;;;;;5036281;28;20113;-87
2022/05/11 12:59:19;;;;;;;5.78;2.53;;;18.60;33.40;;;;;;5035168;28;20060;-86
2022/05/11 13:01:46;;;;;;;4.15;2.60;;;18.70;33.70;;;;;;5035297;28;20118;-86
2022/05/11 13:04:24;;;;;;;4.30;2.03;;;18.70;33.40;;;;;;5034997;28;20053;-87
2022/05/11 13:06:56;;;;;;;4.25;2.55;;;18.70;33.30;;;;;;5017729;28;20037;-86
2022/05/11 13:09:40;;;;;;;6.78;2.60;;;18.70;33.00;;;;;;5036602;28;20040;-86
2022/05/11 13:12:10;;;;;;;3.20;2.30;;;18.60;33.30;;;;;;5036537;28;20024;-86
2022/05/11 13:14:44;;;;;;;4.53;2.10;;;18.60;33.10;;;;;;5034860;28;20025;-85
2022/05/11 13:17:25;;;;;;;4.53;2.08;;;18.60;32.90;;;;;;5034378;28;20033;-87
2022/05/11 13:20:09;;;;;;;6.03;2.47;;;18.60;33.00;;;;;;5035679;28;20033;-89
2022/05/11 13:22:35;;;;;;;7.07;2.58;;;18.60;32.80;;;;;;5037603;28;20080;-88
2022/05/11 13:25:04;;;;;;;5.43;2.17;;;18.60;32.80;;;;;;5035924;28;20029;-87
2022/05/11 13:27:48;;;;;;;3.92;2.20;;;18.60;32.80;;;;;;5015852;28;20035;-87
2022/05/11 13:30:29;;;;;;;8.30;2.33;;;18.60;32.80;;;;;;5015480;28;20491;-87
2022/05/11 13:32:58;;;;;;;7.32;2.83;;;18.50;33.20;;;;;;5035805;28;20032;-87
2022/05/11 13:35:26;;;;;;;7.80;3.20;;;18.50;33.10;;;;;;5035006;28;20045;-87
2022/05/11 13:38:05;;;;;;;7.90;2.45;;;18.50;33.20;;;;;;5015922;28;20053;-87
2022/05/11 13:40:53;;;;;;;4.35;2.60;;;18.60;32.60;;;;;;5017265;28;20079;-86
2022/05/11 13:43:26;;;;;;;7.90;2.45;;;18.60;32.70;;;;;;5032848;28;20025;-86
2022/05/11 13:46:07;;;;;;;8.45;2.35;;;18.70;32.20;;;;;;5022456;28;20045;-87
2022/05/11 13:48:37;;;;;;;9.60;2.67;;;18.80;32.00;;;;;;5013887;28;20459;-86